Time;durP1;ratioP1;P1;durP2;ratioP2;P2;SDS_P1;SDS_P2;PMS_P1;PMS_P2;Temp;Humidity;BMP_temperature;BMP_pressure;BME280_temperature;BME280_humidity;BME280_pressure;Samples;Min_cycle;Max_cycle;Signal;HPM_P1;HPM_P2
2021/04/16 00:00:00;;;;;;;3.30;2.10;;;;;;;1.40;100.00;103037.16;3574240;39;20058;-65
2021/04/16 00:02:26;;;;;;;5.90;2.35;;;;;;;1.35;100.00;103033.69;3574601;39;20052;-62
2021/04/16 00:04:52;;;;;;;6.10;2.58;;;;;;;1.38;100.00;103033.63;3570280;40;20056;-62
2021/04/16 00:07:18;;;;;;;5.22;2.65;;;;;;;1.28;100.00;103032.03;3573079;39;20496;-64
2021/04/16 00:09:44;;;;;;;4.45;2.70;;;;;;;1.21;100.00;103026.81;3573355;39;20075;-64
2021/04/16 00:12:12;;;;;;;3.63;2.67;;;;;;;1.18;100.00;103032.16;3573794;39;20044;-64
2021/04/16 00:14:38;;;;;;;4.55;2.58;;;;;;;1.13;100.00;103035.78;3572815;39;20037;-64
2021/04/16 00:17:05;;;;;;;5.45;2.70;;;;;;;1.04;100.00;103034.13;3569600;39;20056;-64
2021/04/16 00:19:31;;;;;;;4.10;2.67;;;;;;;0.92;100.00;103029.88;3574419;39;20213;-62
2021/04/16 00:21:57;;;;;;;5.40;2.97;;;;;;;0.80;100.00;103028.25;3573034;39;20060;-62
2021/04/16 00:27:14;;;;;;;4.65;3.05;;;;;;;0.66;100.00;103015.19;3593234;22;20065;-62
2021/04/16 00:29:41;;;;;;;3.95;2.35;;;;;;;0.62;100.00;103015.22;3574913;39;20192;-63
2021/04/16 00:32:07;;;;;;;4.43;2.50;;;;;;;0.57;100.00;103012.63;3572933;39;20165;-62
2021/04/16 00:34:33;;;;;;;5.00;2.75;;;;;;;0.57;100.00;103012.63;3572574;40;20344;-62
2021/04/16 00:36:59;;;;;;;5.75;3.10;;;;;;;0.55;100.00;103003.81;3572190;40;21114;-61
2021/04/16 00:39:25;;;;;;;4.22;2.78;;;;;;;0.48;100.00;103007.44;3575388;39;20043;-63
2021/04/16 00:41:52;;;;;;;5.75;3.15;;;;;;;0.46;100.00;102999.50;3574990;39;20060;-62
2021/04/16 00:44:19;;;;;;;4.75;3.10;;;;;;;0.47;100.00;102997.72;3572874;40;20063;-63
2021/04/16 00:46:49;;;;;;;5.85;3.70;;;;;;;0.51;100.00;103002.09;3580201;39;20040;-62
2021/04/16 00:49:23;;;;;;;5.30;2.92;;;;;;;0.45;100.00;102996.88;3581884;40;20059;-61
2021/04/16 00:51:53;;;;;;;5.30;2.85;;;;;;;0.53;100.00;102995.03;3572644;39;20466;-61
2021/04/16 00:54:23;;;;;;;4.28;3.08;;;;;;;0.55;100.00;103002.97;3574247;40;20060;-62
2021/04/16 00:56:50;;;;;;;7.60;3.00;;;;;;;0.58;100.00;102997.63;3574308;40;20627;-62
2021/04/16 00:59:20;;;;;;;4.88;3.55;;;;;;;0.54;100.00;102996.75;3572368;39;20056;-62
2021/04/16 01:01:47;;;;;;;5.05;3.20;;;;;;;0.50;100.00;102989.75;3571668;39;20327;-62
2021/04/16 01:04:13;;;;;;;6.38;4.00;;;;;;;0.39;100.00;102986.38;3574087;39;20037;-61
2021/04/16 01:06:39;;;;;;;8.00;3.40;;;;;;;0.46;100.00;102988.03;3574210;40;20058;-61
2021/04/16 01:09:07;;;;;;;6.47;3.22;;;;;;;0.51;100.00;102975.59;3573425;39;20082;-61
2021/04/16 01:11:33;;;;;;;4.80;3.35;;;;;;;0.51;100.00;102981.78;3575415;40;20444;-61
2021/04/16 01:14:00;;;;;;;4.63;3.40;;;;;;;0.42;100.00;102992.50;3574013;39;20939;-63
2021/04/16 01:16:30;;;;;;;5.43;3.65;;;;;;;0.41;100.00;102988.06;3573768;39;20048;-61
2021/04/16 01:18:59;;;;;;;11.20;3.65;;;;;;;0.42;100.00;102981.88;3574443;39;20110;-62
2021/04/16 01:21:31;;;;;;;4.17;3.10;;;;;;;0.37;100.00;102982.84;3572031;39;20040;-62
2021/04/16 01:24:03;;;;;;;7.45;3.33;;;;;;;0.30;100.00;102985.56;3578536;40;20286;-63
2021/04/16 01:26:34;;;;;;;6.07;3.33;;;;;;;0.23;100.00;102980.34;3575544;39;20048;-61
2021/04/16 01:29:00;;;;;;;5.70;3.13;;;;;;;0.30;100.00;102982.91;3572874;39;20380;-61
2021/04/16 01:31:28;;;;;;;5.60;3.50;;;;;;;0.33;100.00;102980.22;3572914;39;20351;-60
2021/04/16 01:33:54;;;;;;;6.80;3.17;;;;;;;0.34;100.00;102979.34;3573085;39;20066;-63
2021/04/16 01:36:23;;;;;;;5.75;3.45;;;;;;;0.34;100.00;102982.00;3573451;40;20044;-61
2021/04/16 01:38:49;;;;;;;7.35;3.53;;;;;;;0.32;100.00;102981.13;3573642;40;20227;-62
2021/04/16 01:41:17;;;;;;;6.22;3.20;;;;;;;0.39;100.00;102975.75;3572828;39;20181;-63
2021/04/16 01:43:53;;;;;;;6.13;3.25;;;;;;;0.35;100.00;102974.91;3577270;39;20060;-60
2021/04/16 01:46:20;;;;;;;5.30;3.35;;;;;;;0.37;100.00;102986.38;3571904;39;20056;-61
2021/04/16 01:48:48;;;;;;;6.07;4.05;;;;;;;0.47;100.00;102985.38;3573606;40;20958;-61
2021/04/16 01:51:18;;;;;;;8.03;3.90;;;;;;;0.37;100.00;102982.84;3574047;39;20508;-62
2021/04/16 01:53:45;;;;;;;10.15;3.50;;;;;;;0.36;100.00;102975.81;3577061;39;20058;-64
2021/04/16 01:56:11;;;;;;;7.38;3.60;;;;;;;0.35;100.00;102980.22;3578996;39;20055;-61
2021/04/16 01:58:38;;;;;;;7.45;3.65;;;;;;;0.25;100.00;102984.75;3574157;39;22031;-61
2021/04/16 02:01:06;;;;;;;7.18;3.80;;;;;;;0.21;100.00;102976.81;3574526;39;20091;-61
2021/04/16 02:03:32;;;;;;;5.60;3.67;;;;;;;0.14;100.00;102982.19;3573716;39;20175;-61
2021/04/16 02:05:58;;;;;;;7.13;4.07;;;;;;;0.16;100.00;102985.72;3575438;40;20058;-61
2021/04/16 02:08:25;;;;;;;5.50;3.30;;;;;;;0.18;100.00;102983.06;3572150;39;20452;-61
2021/04/16 02:10:51;;;;;;;6.80;4.00;;;;;;;0.12;100.00;102983.13;3576367;40;20066;-61
2021/04/16 02:13:17;;;;;;;6.30;3.72;;;;;;;0.04;100.00;102975.25;3577264;40;20051;-61
2021/04/16 02:15:44;;;;;;;8.00;3.65;;;;;;;0.07;100.00;102979.63;3574775;39;20056;-62
2021/04/16 02:18:11;;;;;;;7.72;4.30;;;;;;;0.05;100.00;102976.13;3574896;39;20087;-63
2021/04/16 02:20:37;;;;;;;8.27;3.58;;;;;;;-0.03;100.00;102982.38;3574817;39;20952;-62
2021/04/16 02:23:03;;;;;;;6.03;4.00;;;;;;;-0.05;100.00;102976.22;3574507;39;20044;-61
2021/04/16 02:25:29;;;;;;;6.13;3.78;;;;;;;-0.15;100.00;102979.84;3572877;39;20156;-60
2021/04/16 02:27:55;;;;;;;8.27;4.03;;;;;;;-0.13;100.00;102975.44;3576235;39;20083;-61
2021/04/16 02:30:26;;;;;;;6.43;3.33;;;;;;;-0.17;100.00;102983.41;3573381;39;20047;-62
2021/04/16 02:32:53;;;;;;;6.22;3.90;;;;;;;-0.23;100.00;102976.41;3575970;39;20585;-62
2021/04/16 02:35:20;;;;;;;6.82;4.20;;;;;;;-0.23;100.00;102979.91;3573964;40;20071;-63
2021/04/16 02:37:46;;;;;;;6.32;3.67;;;;;;;-0.28;100.00;102970.25;3576492;39;20345;-62
2021/04/16 02:40:15;;;;;;;7.05;4.88;;;;;;;-0.30;100.00;102980.88;3571645;39;20089;-60
2021/04/16 02:42:41;;;;;;;6.37;4.50;;;;;;;-0.32;100.00;102977.38;3571938;39;21574;-62
2021/04/16 02:45:10;;;;;;;7.45;4.32;;;;;;;-0.31;100.00;102967.66;3572340;39;20270;-61
2021/04/16 02:47:36;;;;;;;7.27;4.47;;;;;;;-0.37;100.00;102973.88;3577912;39;20352;-61
2021/04/16 02:50:03;;;;;;;7.10;4.68;;;;;;;-0.40;100.00;102969.50;3574323;40;20079;-60
2021/04/16 02:52:30;;;;;;;8.98;4.38;;;;;;;-0.39;100.00;102963.31;3578264;39;20281;-61
2021/04/16 02:54:56;;;;;;;7.18;4.55;;;;;;;-0.45;100.00;102971.28;3573032;39;20044;-60
2021/04/16 02:57:24;;;;;;;6.60;4.05;;;;;;;-0.45;100.00;102963.34;3577775;39;20397;-65
2021/04/16 02:59:50;;;;;;;6.68;4.03;;;;;;;-0.43;100.00;102964.22;3574579;39;20592;-62
2021/04/16 03:02:16;;;;;;;10.82;4.32;;;;;;;-0.50;100.00;102977.50;3571848;39;20066;-60
2021/04/16 03:04:42;;;;;;;10.75;4.40;;;;;;;-0.49;100.00;102968.69;3572956;39;20074;-61
2021/04/16 03:07:08;;;;;;;9.30;4.05;;;;;;;-0.48;100.00;102965.16;3573437;40;20062;-62
2021/04/16 03:09:35;;;;;;;9.20;4.20;;;;;;;-0.57;100.00;102960.81;3574508;39;20048;-63
2021/04/16 03:12:01;;;;;;;7.35;3.95;;;;;;;-0.58;100.00;102969.66;3578239;40;20116;-62
2021/04/16 03:14:27;;;;;;;9.18;4.55;;;;;;;-0.61;100.00;102959.97;3573789;40;20040;-62
2021/04/16 03:16:53;;;;;;;10.75;5.00;;;;;;;-0.62;100.00;102959.97;3572322;39;20372;-62
2021/04/16 03:19:19;;;;;;;6.85;4.20;;;;;;;-0.67;100.00;102956.50;3571219;39;20454;-62
2021/04/16 03:21:45;;;;;;;6.53;4.05;;;;;;;-0.68;100.00;102957.38;3576173;39;20063;-60
2021/04/16 03:24:11;;;;;;;8.93;4.93;;;;;;;-0.71;100.00;102953.88;3574970;40;20613;-61
2021/04/16 03:26:38;;;;;;;8.15;4.72;;;;;;;-0.68;100.00;102958.25;3573880;39;20048;-62
2021/04/16 03:29:05;;;;;;;8.45;4.93;;;;;;;-0.71;100.00;102956.53;3571033;39;20053;-60
2021/04/16 03:31:31;;;;;;;7.03;5.00;;;;;;;-0.78;100.00;102960.09;3573917;39;20086;-64
2021/04/16 03:33:59;;;;;;;9.35;3.83;;;;;;;-0.77;100.00;102953.91;3575237;39;20048;-60
2021/04/16 03:36:26;;;;;;;7.57;4.35;;;;;;;-0.80;100.00;102956.56;3575124;39;20046;-62
2021/04/16 03:38:52;;;;;;;7.15;4.30;;;;;;;-0.78;100.00;102956.56;3575850;40;21870;-63
2021/04/16 03:41:19;;;;;;;6.18;4.10;;;;;;;-0.78;100.00;102959.22;3572437;40;20060;-63
2021/04/16 03:43:46;;;;;;;5.95;3.75;;;;;;;-0.73;100.00;102960.06;3575014;39;20065;-62
2021/04/16 03:46:12;;;;;;;7.32;4.57;;;;;;;-0.79;100.00;102968.91;3572651;39;20389;-62
2021/04/16 03:48:38;;;;;;;9.98;4.90;;;;;;;-0.81;100.00;102964.53;3588843;40;20096;-61
2021/04/16 03:51:06;;;;;;;7.78;4.35;;;;;;;-0.84;100.00;102969.81;3572821;39;20545;-61
2021/04/16 03:53:32;;;;;;;7.40;4.15;;;;;;;-0.87;100.00;102970.72;3575541;40;20048;-61
2021/04/16 03:55:58;;;;;;;6.03;4.15;;;;;;;-0.85;100.00;102973.34;3574927;40;20060;-61
2021/04/16 03:58:24;;;;;;;8.13;4.15;;;;;;;-0.88;100.00;102961.06;3572495;40;20048;-62
2021/04/16 04:00:51;;;;;;;8.82;4.68;;;;;;;-0.87;100.00;102962.78;3573586;39;20295;-62
2021/04/16 04:03:17;;;;;;;6.75;3.90;;;;;;;-0.89;100.00;102961.94;3573612;40;20039;-61
2021/04/16 04:05:43;;;;;;;9.52;3.97;;;;;;;-0.95;100.00;102960.22;3572123;39;20399;-61
2021/04/16 04:08:09;;;;;;;8.68;4.57;;;;;;;-0.88;100.00;102963.69;3573262;40;20357;-62
2021/04/16 04:10:37;;;;;;;7.95;5.43;;;;;;;-0.94;100.00;102958.47;3571878;39;20060;-62
2021/04/16 04:13:04;;;;;;;10.60;5.70;;;;;;;-0.97;100.00;102966.38;3579110;40;20052;-61
2021/04/16 04:15:30;;;;;;;9.75;5.38;;;;;;;-0.96;100.00;102970.78;3577189;39;20130;-61
2021/04/16 04:17:57;;;;;;;11.07;5.35;;;;;;;-0.99;100.00;102970.81;3578921;39;20428;-61
2021/04/16 04:20:26;;;;;;;11.25;5.47;;;;;;;-1.09;100.00;102968.22;3574086;39;20080;-61
2021/04/16 04:22:52;;;;;;;11.48;5.45;;;;;;;-1.07;100.00;102966.44;3573825;39;20072;-60
2021/04/16 04:25:20;;;;;;;10.88;5.07;;;;;;;-1.07;100.00;102969.09;3580749;39;20120;-61
2021/04/16 04:27:47;;;;;;;10.02;5.80;;;;;;;-1.11;100.00;102963.84;3576096;39;20049;-61
2021/04/16 04:32:44;;;;;;;10.15;5.05;;;;;;;-1.07;100.00;102966.44;3584187;22;20489;-61
2021/04/16 04:35:12;;;;;;;10.18;5.63;;;;;;;-1.04;100.00;102960.28;3553669;40;20045;-63
2021/04/16 04:37:38;;;;;;;8.85;5.30;;;;;;;-1.08;100.00;102967.31;3560271;40;20054;-61
2021/04/16 04:40:06;;;;;;;9.50;5.32;;;;;;;-1.13;100.00;102963.84;3559866;40;20155;-64
2021/04/16 04:42:32;;;;;;;12.98;6.55;;;;;;;-1.12;100.00;102962.06;3549292;40;20049;-61
2021/04/16 04:44:59;;;;;;;13.85;7.28;;;;;;;-1.16;100.00;102960.31;3543480;40;20725;-61
2021/04/16 04:47:25;;;;;;;19.52;7.18;;;;;;;-1.22;100.00;102961.25;3552388;40;20051;-64
2021/04/16 04:49:51;;;;;;;15.88;7.78;;;;;;;-1.19;100.00;102966.53;3557231;40;20394;-61
2021/04/16 04:52:20;;;;;;;17.33;8.05;;;;;;;-1.08;100.00;102969.97;3561460;40;20072;-61
2021/04/16 04:54:48;;;;;;;18.83;8.40;;;;;;;-1.13;100.00;102966.50;3553575;40;20308;-62
2021/04/16 04:57:15;;;;;;;16.38;7.78;;;;;;;-1.09;100.00;102967.34;3551051;40;20041;-61
2021/04/16 04:59:42;;;;;;;15.68;8.38;;;;;;;-1.08;100.00;102963.81;3547990;40;20045;-62
2021/04/16 05:02:08;;;;;;;14.70;7.07;;;;;;;-1.01;100.00;102973.47;3557569;40;20037;-61
2021/04/16 05:04:34;;;;;;;16.95;7.55;;;;;;;-1.06;100.00;102973.50;3551950;40;20303;-62
2021/04/16 05:09:27;;;;;;;16.50;8.38;;;;;;;-1.06;100.00;102973.50;3583339;23;20100;-62
2021/04/16 05:11:53;;;;;;;14.75;8.23;;;;;;;-0.97;100.00;102971.66;3555949;40;20464;-63
2021/04/16 05:14:20;;;;;;;19.05;9.07;;;;;;;-0.95;100.00;102972.56;3562897;40;20080;-61
2021/04/16 05:16:46;;;;;;;16.73;9.55;;;;;;;-0.88;100.00;102975.13;3555563;40;20300;-61
2021/04/16 05:19:12;;;;;;;16.67;8.27;;;;;;;-0.81;100.00;102976.00;3555928;40;20084;-64
2021/04/16 05:21:39;;;;;;;17.08;8.52;;;;;;;-0.79;100.00;102970.69;3558049;40;20045;-62
2021/04/16 05:24:06;;;;;;;13.65;7.53;;;;;;;-0.76;100.00;102979.47;3559408;40;20053;-62
2021/04/16 05:26:33;;;;;;;17.67;8.65;;;;;;;-0.61;100.00;102969.66;3556764;40;20133;-64
2021/04/16 05:28:59;;;;;;;18.40;9.63;;;;;;;-0.50;100.00;102973.13;3563224;40;20052;-62
2021/04/16 05:31:26;;;;;;;17.13;8.52;;;;;;;-0.31;100.00;102967.66;3554999;40;20064;-62
2021/04/16 05:33:52;;;;;;;14.57;8.38;;;;;;;-0.07;100.00;102954.19;3557123;40;20063;-60
2021/04/16 05:36:18;;;;;;;16.90;8.00;;;;;;;0.16;100.00;102958.34;3556766;40;20363;-61
2021/04/16 05:38:44;;;;;;;14.50;7.88;;;;;;;0.39;100.00;102959.88;3557000;40;20045;-61
2021/04/16 05:41:10;;;;;;;16.15;8.30;;;;;;;0.65;100.00;102962.19;3560727;40;20049;-63
2021/04/16 05:43:36;;;;;;;19.65;8.93;;;;;;;1.03;100.00;102963.41;3557691;40;20370;-64
2021/04/16 05:46:03;;;;;;;13.30;7.97;;;;;;;1.25;100.00;102952.50;3554873;40;20045;-61
2021/04/16 05:48:29;;;;;;;14.70;8.23;;;;;;;1.62;100.00;102958.09;3564257;40;20055;-62
2021/04/16 05:50:55;;;;;;;12.80;7.20;;;;;;;1.74;100.00;102952.53;3559470;40;20063;-61
2021/04/16 05:53:21;;;;;;;16.85;7.38;;;;;;;2.01;100.00;102960.91;3554687;40;20315;-60
2021/04/16 05:55:47;;;;;;;13.05;6.63;;;;;;;2.25;100.00;102953.34;3559012;40;20056;-63
2021/04/16 05:58:14;;;;;;;13.20;6.35;;;;;;;2.82;100.00;102956.63;3557100;40;20416;-61
2021/04/16 06:00:40;;;;;;;13.75;6.75;;;;;;;3.76;100.00;102949.91;3557328;40;20052;-63
2021/04/16 06:03:07;;;;;;;10.68;5.50;;;;;;;3.82;100.00;102955.06;3560729;40;20327;-63
2021/04/16 06:05:33;;;;;;;13.82;5.28;;;;;;;3.99;100.00;102951.06;3549805;40;20229;-62
2021/04/16 06:08:27;;;;;;;9.10;5.68;;;;;;;4.01;100.00;102955.44;3606774;23;20056;-63
2021/04/16 06:10:56;;;;;;;12.20;5.63;;;;;;;3.94;100.00;102952.97;3537320;40;20136;-62
2021/04/16 06:13:22;;;;;;;11.57;5.90;;;;;;;4.07;100.00;102961.53;3541821;40;20191;-62
2021/04/16 06:15:51;;;;;;;11.00;5.68;;;;;;;3.84;100.00;102961.22;3531362;40;20300;-62
2021/04/16 06:18:17;;;;;;;15.18;6.10;;;;;;;3.75;100.00;102961.44;3534879;40;20046;-62
2021/04/16 06:20:42;;;;;;;12.57;6.28;;;;;;;3.75;100.00;102958.78;3536057;40;20727;-62
2021/04/16 06:23:08;;;;;;;11.98;5.45;;;;;;;3.90;100.00;102959.31;3534414;40;20053;-62
2021/04/16 06:25:34;;;;;;;14.10;5.72;;;;;;;4.01;100.00;102960.75;3534293;40;20061;-64
2021/04/16 06:28:01;;;;;;;14.38;5.65;;;;;;;3.89;100.00;102970.88;3539691;40;20412;-60
2021/04/16 06:30:28;;;;;;;12.55;5.45;;;;;;;3.87;100.00;102962.91;3539384;40;20052;-61
2021/04/16 06:33:04;;;;;;;10.45;4.88;;;;;;;3.93;100.00;102967.22;3533656;40;20100;-62
2021/04/16 06:35:31;;;;;;;12.05;5.57;;;;;;;4.03;100.00;102969.59;3536921;40;20112;-62
2021/04/16 06:37:57;;;;;;;14.82;5.00;;;;;;;4.19;100.00;102966.50;3529068;40;20314;-63
2021/04/16 06:40:23;;;;;;;10.82;5.05;;;;;;;4.08;100.00;102966.81;3533629;40;20056;-62
2021/04/16 06:42:49;;;;;;;12.02;5.35;;;;;;;4.09;100.00;102976.53;3529645;40;20051;-62
2021/04/16 06:45:21;;;;;;;9.32;5.07;;;;;;;4.19;100.00;102975.38;3532078;40;20136;-61
2021/04/16 06:47:53;;;;;;;12.60;5.10;;;;;;;4.23;100.00;102975.31;3541356;40;20046;-62
2021/04/16 06:50:22;;;;;;;13.35;5.53;;;;;;;4.36;100.00;102976.72;3531395;40;20165;-62
2021/04/16 06:52:53;;;;;;;11.13;5.25;;;;;;;4.50;100.00;102969.16;3534193;40;20111;-62
2021/04/16 06:55:26;;;;;;;12.88;5.28;;;;;;;4.54;100.00;102976.16;3533253;40;20073;-62
2021/04/16 06:58:00;;;;;;;12.13;4.75;;;;;;;4.57;100.00;102977.88;3538941;40;20127;-61
2021/04/16 07:00:36;;;;;;;12.25;5.40;;;;;;;4.60;100.00;102974.25;3549516;40;20064;-62
2021/04/16 07:03:07;;;;;;;11.65;5.05;;;;;;;4.83;100.00;102969.09;3549962;40;20037;-62
2021/04/16 07:05:38;;;;;;;11.48;6.13;;;;;;;4.76;100.00;102970.19;3551695;40;20340;-62
2021/04/16 07:08:07;;;;;;;15.20;5.93;;;;;;;4.81;100.00;102962.06;3537683;40;20277;-63
2021/04/16 07:10:37;;;;;;;13.07;6.13;;;;;;;4.95;100.00;102953.59;3535643;40;20177;-63
2021/04/16 07:13:06;;;;;;;16.05;6.85;;;;;;;5.18;100.00;102960.91;3532564;40;20042;-63
2021/04/16 07:15:40;;;;;;;11.45;5.35;;;;;;;5.43;100.00;102955.63;3533618;40;20093;-64
2021/04/16 07:18:06;;;;;;;13.80;5.85;;;;;;;5.58;100.00;102963.13;3529113;40;20062;-63
2021/04/16 07:20:33;;;;;;;15.60;6.60;;;;;;;5.60;100.00;102966.63;3533907;40;20488;-63
2021/04/16 07:23:01;;;;;;;11.70;6.22;;;;;;;5.61;100.00;102960.34;3536294;40;20435;-67
2021/04/16 07:25:39;;;;;;;11.40;5.38;;;;;;;5.57;100.00;102958.72;3534029;40;20054;-62
2021/04/16 07:28:07;;;;;;;12.00;5.35;;;;;;;5.71;100.00;102960.03;3534673;40;20049;-62
2021/04/16 07:30:40;;;;;;;13.27;5.63;;;;;;;5.92;100.00;102951.28;3531689;40;20137;-65
2021/04/16 07:33:24;;;;;;;12.85;5.32;;;;;;;5.97;100.00;102952.00;3535517;40;20093;-62
2021/04/16 07:35:51;;;;;;;13.05;5.68;;;;;;;6.02;100.00;102956.31;3552151;40;20054;-64
2021/04/16 07:38:27;;;;;;;10.32;5.30;;;;;;;6.05;100.00;102958.88;3552174;40;20060;-63
2021/04/16 07:41:15;;;;;;;11.90;5.68;;;;;;;6.14;100.00;102953.22;3551990;40;20076;-61
2021/04/16 07:43:45;;;;;;;12.35;4.95;;;;;;;6.28;100.00;102956.25;3550572;40;20046;-63
2021/04/16 07:46:22;;;;;;;14.55;5.03;;;;;;;6.33;100.00;102958.78;3549990;40;20471;-62
2021/04/16 07:48:48;;;;;;;11.10;4.82;;;;;;;6.50;100.00;102955.47;3551673;40;20076;-63
2021/04/16 07:51:27;;;;;;;9.35;4.70;;;;;;;6.62;100.00;102960.31;3551359;40;20424;-63
2021/04/16 07:53:54;;;;;;;10.13;5.15;;;;;;;6.62;100.00;102959.47;3551501;40;20070;-61
2021/04/16 07:56:23;;;;;;;9.80;5.10;;;;;;;6.76;100.00;102958.97;3550673;40;20376;-62
2021/04/16 07:58:59;;;;;;;10.07;4.90;;;;;;;6.81;100.00;102963.16;3548595;40;20046;-61
2021/04/16 08:01:30;;;;;;;9.38;4.85;;;;;;;6.87;100.00;102964.75;3530403;40;20048;-64
2021/04/16 08:04:01;;;;;;;8.93;4.80;;;;;;;6.72;100.00;102960.00;3530149;40;21206;-63
2021/04/16 08:06:31;;;;;;;13.13;4.72;;;;;;;6.98;100.00;102957.16;3528699;40;20057;-64
2021/04/16 08:08:59;;;;;;;11.02;4.28;;;;;;;7.13;100.00;102957.50;3532617;40;20060;-63
2021/04/16 08:11:28;;;;;;;8.52;4.55;;;;;;;7.37;100.00;102952.91;3531317;40;20099;-62
2021/04/16 08:14:03;;;;;;;9.50;3.97;;;;;;;7.42;100.00;102967.00;3532782;40;20316;-62
2021/04/16 08:16:33;;;;;;;11.07;4.43;;;;;;;7.67;100.00;102952.56;3528792;40;20672;-63
2021/04/16 08:19:26;;;;;;;10.93;5.72;;;;;;;7.40;100.00;102960.81;3531189;40;20090;-62
2021/04/16 08:21:56;;;;;;;9.35;5.60;;;;;;;7.53;100.00;102963.88;3527061;40;20049;-62
2021/04/16 08:24:32;;;;;;;10.45;5.03;;;;;;;7.81;100.00;102952.84;3527292;40;20163;-64
2021/04/16 08:27:12;;;;;;;8.00;3.65;;;;;;;7.88;100.00;102950.78;3533059;40;20058;-61
2021/04/16 08:29:40;;;;;;;10.63;4.40;;;;;;;8.06;100.00;102958.00;3529102;40;20049;-63
2021/04/16 08:32:19;;;;;;;8.63;3.47;;;;;;;8.19;100.00;102952.09;3532301;40;20057;-65
2021/04/16 08:34:49;;;;;;;7.03;3.60;;;;;;;8.27;100.00;102949.94;3533193;40;20071;-63
2021/04/16 08:37:22;;;;;;;10.07;3.70;;;;;;;8.33;100.00;102947.00;3536177;40;20298;-65
2021/04/16 08:39:50;;;;;;;6.28;3.47;;;;;;;8.10;100.00;102948.03;3531226;40;20733;-64
2021/04/16 08:42:22;;;;;;;8.63;4.05;;;;;;;8.34;100.00;102954.06;3530523;40;20319;-63
2021/04/16 08:44:51;;;;;;;5.38;3.40;;;;;;;8.37;100.00;102951.25;3532137;40;20052;-63
2021/04/16 08:47:23;;;;;;;9.95;3.83;;;;;;;8.72;100.00;102953.28;3534595;40;20093;-65
2021/04/16 08:49:52;;;;;;;6.93;3.75;;;;;;;8.94;100.00;102958.50;3536029;40;20046;-64
2021/04/16 08:52:20;;;;;;;;;;;;;;;9.06;100.00;102960.59;3535671;40;20510;-65
2021/04/16 08:54:51;;;;;;;8.63;3.30;;;;;;;9.32;100.00;102950.38;3534324;40;19938;-66
2021/04/16 08:57:20;;;;;;;6.68;3.17;;;;;;;9.55;100.00;102943.81;3533948;40;20050;-63
2021/04/16 08:59:53;;;;;;;;;;;;;;;9.32;100.00;102939.63;3535964;40;20140;-62
2021/04/16 09:02:22;;;;;;;6.55;3.10;;;;;;;9.30;100.00;102944.19;3534253;40;19945;-63
2021/04/16 09:04:51;;;;;;;6.57;2.75;;;;;;;9.20;95.96;102937.53;3532561;40;20296;-62
2021/04/16 09:07:29;;;;;;;;;;;;;;;9.29;90.40;102939.78;3533173;40;20046;-63
2021/04/16 09:09:57;;;;;;;6.40;2.75;;;;;;;9.22;96.99;102938.34;3536107;40;20211;-63
2021/04/16 09:12:47;;;;;;;6.95;2.70;;;;;;;9.27;87.80;102933.59;3548077;40;20070;-63
2021/04/16 09:15:39;;;;;;;7.80;2.95;;;;;;;9.59;89.21;102931.13;3550134;40;20146;-65
2021/04/16 09:18:25;;;;;;;4.65;2.38;;;;;;;9.89;85.13;102925.09;3549757;40;20389;-65
2021/04/16 09:21:12;;;;;;;4.00;2.47;;;;;;;9.65;80.95;102922.72;3549897;40;20062;-66
2021/04/16 09:24:10;;;;;;;4.70;2.75;;;;;;;9.58;80.73;102926.69;3549485;40;20057;-63
2021/04/16 09:27:03;;;;;;;4.65;2.20;;;;;;;9.76;77.15;102920.38;3532420;40;20094;-64
2021/04/16 09:29:41;;;;;;;3.95;2.35;;;;;;;9.99;76.27;102919.13;3549372;40;20047;-63
2021/04/16 09:32:38;;;;;;;8.52;2.50;;;;;;;10.10;76.35;102925.75;3549122;40;20081;-63
2021/04/16 09:35:07;;;;;;;6.07;2.80;;;;;;;10.36;77.96;102927.06;3549609;40;20046;-63
2021/04/16 09:37:36;;;;;;;10.00;2.58;;;;;;;10.31;71.21;102912.97;3549967;40;20139;-65
2021/04/16 09:40:32;;;;;;;5.68;2.65;;;;;;;10.00;72.91;102915.50;3548665;40;20393;-63
2021/04/16 09:43:21;;;;;;;6.18;2.55;;;;;;;10.14;74.82;102914.78;3548090;40;20061;-63
2021/04/16 09:45:48;;;;;;;5.78;2.78;;;;;;;10.52;76.91;102916.34;3548918;40;20055;-63
2021/04/16 09:48:24;;;;;;;7.68;3.05;;;;;;;10.77;75.87;102918.53;3549453;40;20054;-65
2021/04/16 09:51:11;;;;;;;7.93;3.55;;;;;;;10.66;67.97;102918.28;3550253;40;20041;-63
2021/04/16 09:53:38;;;;;;;5.32;2.67;;;;;;;10.77;68.60;102905.06;3550038;40;20440;-65
2021/04/16 09:56:17;;;;;;;6.40;2.88;;;;;;;10.85;62.70;102905.50;3548795;40;20058;-63
2021/04/16 09:59:28;;;;;;;6.70;3.10;;;;;;;10.69;63.65;102907.34;3548124;40;20182;-64
2021/04/16 10:02:21;;;;;;;6.30;2.97;;;;;;;10.44;61.60;102895.22;3550087;40;20069;-63
2021/04/16 10:05:01;;;;;;;7.45;3.33;;;;;;;10.75;58.31;102900.69;3545095;40;20041;-63
2021/04/16 10:07:38;;;;;;;5.20;3.35;;;;;;;10.97;57.07;102886.91;3550437;40;20400;-65
2021/04/16 10:10:15;;;;;;;6.75;3.72;;;;;;;11.05;54.00;102895.38;3550006;40;20047;-64
2021/04/16 10:12:41;;;;;;;7.80;3.28;;;;;;;11.01;50.93;102892.03;3551244;40;20130;-64
2021/04/16 10:15:19;;;;;;;5.88;3.30;;;;;;;10.93;56.41;102896.97;3551726;40;20054;-64
2021/04/16 10:17:59;;;;;;;7.93;3.05;;;;;;;11.03;56.67;102900.00;3551773;40;20046;-64
2021/04/16 10:20:29;;;;;;;6.03;2.95;;;;;;;11.21;56.68;102881.88;3550163;40;20391;-63
2021/04/16 10:23:05;;;;;;;6.88;3.00;;;;;;;11.43;55.66;102875.22;3551051;40;20086;-63
2021/04/16 12:38:45;;;;;;;4.65;1.73;;;;;;;13.89;38.05;102781.69;3550951;40;20106;-65
2021/04/16 12:41:15;;;;;;;6.65;1.80;;;;;;;13.83;37.77;102773.03;3550613;40;20390;-65
2021/04/16 12:43:44;;;;;;;4.35;1.92;;;;;;;13.67;39.26;102778.66;3551096;40;20356;-68
2021/04/16 12:46:13;;;;;;;3.00;1.57;;;;;;;13.86;40.28;102765.69;3550260;40;20086;-65
2021/04/16 12:48:40;;;;;;;2.25;1.50;;;;;;;13.94;38.79;102774.09;3551387;40;20773;-65
2021/04/16 12:51:06;;;;;;;3.58;1.77;;;;;;;13.68;39.96;102776.84;3550443;40;20049;-64
2021/04/16 12:53:31;;;;;;;5.50;1.80;;;;;;;13.69;41.26;102772.28;3550380;40;20041;-65
2021/04/16 12:55:58;;;;;;;6.00;1.85;;;;;;;14.10;38.82;102769.28;3549948;40;20400;-64
2021/04/16 12:58:29;;;;;;;4.50;1.90;;;;;;;13.71;43.59;102779.34;3549628;40;20064;-69
2021/04/16 13:00:57;;;;;;;3.72;1.60;;;;;;;13.54;39.17;102779.66;3549917;40;20049;-64
2021/04/16 13:03:29;;;;;;;6.00;1.95;;;;;;;13.59;38.75;102764.84;3551124;40;20132;-65
2021/04/16 13:05:56;;;;;;;14.05;2.45;;;;;;;13.91;39.96;102772.47;3550861;40;20131;-65
2021/04/16 13:08:22;;;;;;;3.15;1.67;;;;;;;13.90;36.32;102768.06;3548335;40;20086;-65
2021/04/16 13:10:48;;;;;;;3.95;1.83;;;;;;;13.96;37.41;102764.03;3550547;40;20065;-68
2021/04/16 13:13:15;;;;;;;2.85;2.10;;;;;;;14.60;37.01;102757.50;3550730;40;20050;-67
2021/04/16 13:15:41;;;;;;;3.53;1.50;;;;;;;14.57;36.66;102765.88;3550671;40;20510;-64
2021/04/16 13:18:14;;;;;;;6.13;1.88;;;;;;;14.41;37.76;102755.31;3549699;40;20051;-65
2021/04/16 13:20:43;;;;;;;3.10;1.80;;;;;;;14.81;35.39;102760.47;3551179;40;20054;-68
2021/04/16 13:23:09;;;;;;;3.22;1.80;;;;;;;14.59;37.21;102756.66;3547133;40;20433;-65
2021/04/16 13:25:35;;;;;;;4.13;1.77;;;;;;;14.66;35.48;102755.25;3548715;40;20046;-69
2021/04/16 13:28:01;;;;;;;3.45;2.00;;;;;;;14.79;36.35;102752.44;3550383;40;20381;-66
2021/04/16 13:30:31;;;;;;;3.53;1.90;;;;;;;14.54;36.77;102766.97;3549061;40;20399;-64
2021/04/16 13:33:01;;;;;;;4.10;1.80;;;;;;;14.48;38.30;102762.00;3548992;40;20333;-68
2021/04/16 13:35:30;;;;;;;3.00;1.60;;;;;;;14.43;36.16;102748.81;3547464;40;20046;-65
2021/04/16 13:37:59;;;;;;;4.30;1.70;;;;;;;14.65;35.61;102745.38;3550032;40;20042;-69
2021/04/16 13:40:25;;;;;;;4.07;1.60;;;;;;;14.24;37.94;102746.63;3549993;40;20062;-64
2021/04/16 13:42:51;;;;;;;3.38;1.70;;;;;;;14.19;35.88;102743.38;3549208;40;20143;-64
2021/04/16 13:45:17;;;;;;;2.55;1.50;;;;;;;14.56;36.95;102740.63;3547032;40;20109;-66
2021/04/16 13:47:45;;;;;;;2.63;1.55;;;;;;;14.71;35.56;102735.94;3549767;40;20077;-65
2021/04/16 13:50:15;;;;;;;2.50;1.80;;;;;;;15.11;34.94;102727.41;3549967;40;20135;-65
2021/04/16 13:52:40;;;;;;;;;;;;;;;15.10;36.04;102730.25;3550568;40;20329;-68